createdAt,value
2023-05-15T05:31:27.555Z,16.90
2023-05-15T05:34:29.295Z,18.30
2023-05-15T05:37:30.934Z,19.80
2023-05-15T05:40:32.695Z,20.70
2023-05-15T05:43:35.904Z,20.90
2023-05-15T05:46:37.581Z,21.10
2023-05-15T05:49:39.859Z,21.80
2023-05-15T05:52:41.532Z,22.50
2023-05-15T05:55:43.577Z,22.80
2023-05-15T05:58:45.523Z,23.40
2023-05-15T06:01:49.129Z,23.90
2023-05-15T06:04:53.297Z,24.00
2023-05-15T06:07:56.616Z,22.80
2023-05-15T06:10:58.330Z,24.00
2023-05-15T06:50:05.439Z,24.00
2023-05-15T06:53:07.259Z,25.00
2023-05-15T06:56:09.225Z,25.00
2023-05-15T06:59:12.347Z,25.70
2023-05-15T07:02:14.458Z,25.60
2023-05-15T07:05:16.990Z,25.50
2023-05-15T07:08:19.194Z,26.00
2023-05-15T07:11:21.056Z,26.40
2023-05-15T07:14:23.064Z,25.10
2023-05-15T07:17:25.018Z,25.70
2023-05-15T07:20:30.314Z,23.70
2023-05-15T07:23:34.105Z,23.70
2023-05-15T07:26:43.523Z,24.80
2023-05-15T07:29:53.399Z,25.30
2023-05-15T07:32:55.444Z,27.20
2023-05-15T07:35:57.221Z,25.20
2023-05-15T07:38:58.956Z,24.20
2023-05-15T07:42:00.923Z,23.50
2023-05-15T07:45:03.339Z,22.50
2023-05-15T07:48:15.519Z,21.60
2023-05-15T07:51:17.344Z,21.90
2023-05-15T07:54:19.329Z,20.90
2023-05-15T07:57:21.520Z,20.40
2023-05-15T08:00:23.401Z,19.80
2023-05-15T08:03:25.444Z,19.90
2023-05-15T08:06:27.780Z,20.80
2023-05-15T08:09:29.914Z,20.80
2023-05-15T08:12:32.068Z,21.00
2023-05-15T08:15:33.812Z,21.70
2023-05-15T08:18:35.782Z,21.40
2023-05-15T08:21:38.208Z,22.20
2023-05-15T08:24:40.401Z,22.70
2023-05-15T08:27:42.116Z,22.40
2023-05-15T08:30:43.740Z,21.00
2023-05-15T08:33:45.993Z,21.30
2023-05-15T08:36:47.709Z,21.20
2023-05-15T08:39:49.410Z,21.20
2023-05-15T08:42:55.516Z,22.00
2023-05-15T08:45:58.332Z,23.00
2023-05-15T08:49:11.561Z,22.90
2023-05-15T08:52:13.598Z,22.40
2023-05-15T08:55:16.556Z,23.10
2023-05-15T08:58:19.828Z,23.10
2023-05-15T09:01:22.825Z,23.80
2023-05-15T09:04:27.509Z,23.30
2023-05-15T09:07:31.454Z,23.50
2023-05-15T09:10:34.226Z,22.60
2023-05-15T09:13:36.382Z,23.70
2023-05-15T09:16:38.693Z,23.20
2023-05-15T09:19:41.355Z,22.30
2023-05-15T09:22:43.141Z,21.20
2023-05-15T09:25:45.097Z,22.10
2023-05-15T09:28:47.010Z,22.90
2023-05-15T09:31:50.078Z,22.70
2023-05-15T09:34:52.234Z,22.50
2023-05-15T09:38:00.221Z,22.50
2023-05-15T09:41:08.710Z,21.90
2023-05-15T09:44:26.206Z,22.00
2023-05-15T09:47:29.235Z,22.90
2023-05-15T09:50:38.871Z,25.10
2023-05-15T09:53:43.276Z,25.00
2023-05-15T09:56:47.222Z,25.90
2023-05-15T09:59:50.005Z,25.40
2023-05-15T10:02:52.850Z,27.00
2023-05-15T10:06:03.743Z,27.90
2023-05-15T10:09:06.687Z,28.20
2023-05-15T10:12:09.672Z,28.40
2023-05-15T10:15:12.757Z,26.50
2023-05-15T10:18:17.755Z,25.80
2023-05-15T10:21:23.278Z,26.00
2023-05-15T10:24:29.329Z,26.80
2023-05-15T10:27:35.397Z,25.90
2023-05-15T10:30:38.492Z,26.70
2023-05-15T10:33:41.122Z,26.60
2023-05-15T10:36:43.556Z,26.50
2023-05-15T10:39:47.953Z,27.30
2023-05-15T10:42:50.759Z,26.10
2023-05-15T10:45:54.903Z,25.90
2023-05-15T10:48:59.103Z,26.60
2023-05-15T10:52:01.465Z,25.40
2023-05-15T10:55:06.839Z,24.90
2023-05-15T10:58:10.164Z,24.80
2023-05-15T11:01:24.965Z,25.50
2023-05-15T11:04:33.344Z,25.20
2023-05-15T11:07:35.115Z,24.70
2023-05-15T11:10:37.492Z,24.40
2023-05-15T11:14:08.345Z,23.70
2023-05-15T11:17:11.714Z,22.80
2023-05-15T11:20:13.510Z,22.50
2023-05-15T11:23:15.328Z,24.30
2023-05-15T11:26:17.128Z,23.70
2023-05-15T11:29:19.302Z,23.50
2023-05-15T11:32:58.380Z,23.30
2023-05-15T11:36:01.106Z,23.80
2023-05-15T11:39:09.669Z,23.90
2023-05-15T11:42:14.464Z,23.70
2023-05-15T11:45:16.259Z,22.90
2023-05-15T11:48:19.233Z,22.60
2023-05-15T11:51:27.845Z,22.30
2023-05-15T11:54:30.271Z,22.20
2023-05-15T11:57:32.145Z,20.90
2023-05-15T12:00:33.900Z,21.30
2023-05-15T12:03:36.374Z,21.60
2023-05-15T12:06:38.507Z,21.80
2023-05-15T12:09:40.667Z,22.00
2023-05-15T12:12:46.424Z,22.20
2023-05-15T12:15:48.157Z,22.30
2023-05-15T12:18:50.315Z,22.40
2023-05-15T12:21:52.065Z,21.90
2023-05-15T12:24:53.837Z,22.00
2023-05-15T12:27:55.890Z,22.20
2023-05-15T12:30:58.483Z,21.90
2023-05-15T12:34:00.607Z,22.10
2023-05-15T12:37:03.065Z,22.00
2023-05-15T12:40:13.062Z,21.40
2023-05-15T12:43:15.006Z,21.00
2023-05-15T12:46:21.802Z,21.00
2023-05-15T12:49:23.917Z,20.70
2023-05-15T12:52:29.468Z,20.70
2023-05-15T12:55:36.108Z,20.60
2023-05-15T12:58:38.592Z,20.00
2023-05-15T13:01:44.779Z,20.20
2023-05-15T13:04:47.296Z,19.80
2023-05-15T13:07:49.208Z,20.10
2023-05-15T13:10:59.259Z,20.40
2023-05-15T13:14:01.018Z,20.50
2023-05-15T13:17:03.352Z,20.40
2023-05-15T13:20:06.112Z,20.60
2023-05-15T13:23:09.197Z,20.30
2023-05-15T13:26:11.262Z,20.80
2023-05-15T13:29:13.026Z,20.90
2023-05-15T13:32:14.793Z,20.60
2023-05-15T13:35:16.523Z,20.60
2023-05-15T13:38:18.436Z,20.60
2023-05-15T13:41:20.122Z,20.20
2023-05-15T13:44:21.865Z,19.50
2023-05-15T13:47:23.581Z,19.50
2023-05-15T13:50:25.742Z,19.50
2023-05-15T13:53:27.562Z,19.60
2023-05-15T13:56:29.404Z,19.60
2023-05-15T13:59:31.304Z,19.80
2023-05-15T14:02:33.772Z,19.70
2023-05-15T14:05:35.596Z,20.00
2023-05-15T14:08:37.312Z,20.10
2023-05-15T14:11:39.063Z,20.30
2023-05-15T14:14:41.016Z,20.30
2023-05-15T14:17:43.200Z,20.60
2023-05-15T14:20:44.952Z,20.50
2023-05-15T14:23:46.664Z,20.90
2023-05-15T14:26:48.561Z,20.80
2023-05-15T14:29:51.274Z,20.90
2023-05-15T14:32:53.045Z,20.90
2023-05-15T14:35:54.843Z,20.70
2023-05-15T14:38:59.001Z,20.70
2023-05-15T14:42:02.073Z,20.50
2023-05-15T14:45:04.903Z,20.70
2023-05-15T14:48:06.731Z,20.80
2023-05-15T14:51:08.731Z,20.70
2023-05-15T14:54:10.491Z,20.70
2023-05-15T14:57:12.742Z,20.60
2023-05-15T15:00:15.623Z,20.40
2023-05-15T15:03:19.280Z,20.50
2023-05-15T15:06:21.147Z,20.80
2023-05-15T15:09:24.001Z,20.90
2023-05-15T15:12:26.793Z,20.90
2023-05-15T15:15:29.109Z,20.90
2023-05-15T15:18:30.886Z,20.70
2023-05-15T15:21:34.680Z,21.00
2023-05-15T15:24:36.452Z,20.80
2023-05-15T15:27:38.271Z,20.70
2023-05-15T15:30:40.105Z,20.00
2023-05-15T15:33:41.904Z,20.30
2023-05-15T15:36:43.770Z,20.30
2023-05-15T15:39:45.682Z,19.80
2023-05-15T15:42:47.373Z,19.40
2023-05-15T15:45:49.278Z,19.40
2023-05-15T15:48:51.134Z,19.80
2023-05-15T15:51:52.870Z,19.30
2023-05-15T15:54:54.686Z,18.50
2023-05-15T15:57:56.594Z,18.00
